This is the latest recevied weather packets stored in our database for station/object N0LTM. If no packets are shown the sender has not sent any weather packets the latest 10 day(s).
| Time | Temp. | Humidity | Pressure | Rain* | Wind** | Luminosity | Snow |
|---|---|---|---|---|---|---|---|
| 1777567855 | 13.33° C | 50% | 1016.4 hPa | 0 mm | - | - | - |
| 1777566057 | 11.67° C | 49% | 1016.6 hPa | 0 mm | - | - | - |
| 1777563656 | 11.67° C | 50% | 1016.7 hPa | 0 mm | - | - | - |
| 1777563056 | 11.67° C | 52% | 1016.8 hPa | 0 mm | - | - | - |
| 1777562757 | 11.67° C | 46% | 1016.8 hPa | 0 mm | - | - | - |
| 1777562456 | 11.67° C | 51% | 1016.9 hPa | 0 mm | - | - | - |
| 1777562162 | 11.11° C | 49% | 1016.8 hPa | 0 mm | - | - | - |
| 1777561557 | 11.11° C | 51% | 1016.9 hPa | 0 mm | - | - | - |
| 1777561264 | 11.11° C | 55% | 1016.8 hPa | 0 mm | - | - | - |
| 1777560955 | 10.56° C | 54% | 1016.8 hPa | 0 mm | - | - | - |
| 1777560660 | 10° C | 56% | 1016.9 hPa | 0 mm | - | - | - |
| 1777560057 | 10.56° C | 62% | 1016.6 hPa | 0 mm | - | - | - |
| 1777553172 | 5.56° C | 98% | 1017.2 hPa | 0 mm | - | - | - |
| 1777552557 | 5° C | 98% | 1016.9 hPa | 0 mm | - | - | - |
| 1777551956 | 4.44° C | 98% | 1016.9 hPa | 0 mm | - | - | - |
| 1777551357 | 3.89° C | 97% | 1016.9 hPa | 0 mm | - | - | - |
| 1777551057 | 3.89° C | 97% | 1017 hPa | 0 mm | - | - | - |
| 1777550455 | 3.33° C | 97% | 1016.9 hPa | 0 mm | - | - | - |
| 1777549256 | 2.22° C | 97% | 1017 hPa | 0 mm | - | - | - |
| 1777546857 | 1.11° C | 95% | 1016.8 hPa | 0 mm | - | - | - |
| 1777546557 | 1.67° C | 95% | 1016.8 hPa | 0 mm | - | - | - |
| 1777545662 | 1.67° C | 95% | 1016.7 hPa | 0 mm | - | - | - |
| 1777545356 | 1.67° C | 95% | 1016.7 hPa | 0 mm | - | - | - |
| 1777544162 | 2.22° C | 95% | 1016.7 hPa | 0 mm | - | - | - |
| 1777542056 | 2.22° C | 95% | 1016.5 hPa | 0 mm | - | - | - |
* Rain latest hour (hover to see other rain measurements)
** Current wind speed in m/s (hover to see current wind gust speed)